Time;durP1;ratioP1;P1;durP2;ratioP2;P2;SDS_P1;SDS_P2;PMS_P1;PMS_P2;Temp;Humidity;BMP_temperature;BMP_pressure;BME280_temperature;BME280_humidity;BME280_pressure;Samples;Min_cycle;Max_cycle;Signal;HPM_P1;HPM_P2
2023/08/31 00:09:05;;;;;;;39.58;30.75;;;11.20;99.90;;;;;;21050247;28;20036;-58
2023/08/31 00:19:07;;;;;;;31.50;27.60;;;10.90;99.90;;;;;;21044216;28;20097;-58
2023/08/31 00:29:10;;;;;;;37.85;28.48;;;10.50;99.90;;;;;;21014748;28;20050;-58
2023/08/31 00:39:13;;;;;;;33.80;26.02;;;10.20;99.90;;;;;;21056731;28;20036;-58
2023/08/31 00:49:15;;;;;;;35.65;27.27;;;9.90;99.90;;;;;;21052031;28;20082;-59
2023/08/31 00:59:17;;;;;;;46.47;33.00;;;9.60;99.90;;;;;;21030979;28;20091;-57
2023/08/31 01:09:59;;;;;;;32.20;24.10;;;9.40;99.90;;;;;;20989611;28;20037;-49
2023/08/31 01:20:03;;;;;;;22.38;19.15;;;9.30;99.90;;;;;;20772105;28;20522;-52
2023/08/31 01:30:06;;;;;;;30.48;23.90;;;9.00;99.90;;;;;;20833104;28;20203;-51
2023/08/31 01:40:24;;;;;;;29.00;22.40;;;8.90;99.90;;;;;;20790240;28;20069;-58
2023/08/31 01:50:26;;;;;;;46.25;31.13;;;8.90;99.90;;;;;;20869123;28;20051;-52
2023/08/31 02:00:28;;;;;;;31.88;22.85;;;9.00;99.90;;;;;;20992760;28;20105;-58
2023/08/31 02:10:31;;;;;;;23.08;18.67;;;9.00;99.90;;;;;;21022405;28;20043;-52
2023/08/31 02:20:34;;;;;;;14.77;11.35;;;9.00;99.90;;;;;;21022711;28;20032;-59
2023/08/31 02:30:35;;;;;;;6.60;5.80;;;9.00;99.90;;;;;;20982287;28;20028;-50
2023/08/31 02:40:40;;;;;;;2.08;0.70;;;9.00;99.90;;;;;;21024018;28;20024;-59
2023/08/31 02:50:44;;;;;;;0.30;0.30;;;9.00;99.90;;;;;;21046213;28;20030;-58
2023/08/31 03:00:48;;;;;;;0.40;0.20;;;8.90;99.90;;;;;;21023328;28;20052;-49
2023/08/31 03:10:50;;;;;;;0.50;0.20;;;8.90;99.90;;;;;;21030401;28;20480;-53
2023/08/31 03:20:52;;;;;;;0.47;0.25;;;8.70;99.90;;;;;;21016527;28;20469;-59
2023/08/31 03:30:55;;;;;;;0.20;0.20;;;8.60;99.90;;;;;;20998465;28;20044;-59
2023/08/31 03:40:58;;;;;;;0.20;0.10;;;8.70;99.90;;;;;;21016452;28;20028;-51
2023/08/31 03:51:00;;;;;;;0.52;0.20;;;8.60;99.90;;;;;;21029128;28;20543;-50
2023/08/31 04:01:01;;;;;;;0.32;0.20;;;8.50;99.90;;;;;;21019624;28;20105;-53
2023/08/31 04:11:03;;;;;;;0.25;0.20;;;8.50;99.90;;;;;;21014526;28;20044;-53
2023/08/31 04:21:06;;;;;;;0.60;0.40;;;8.60;99.90;;;;;;21004356;28;20370;-52
2023/08/31 04:31:07;;;;;;;0.80;0.30;;;8.60;99.90;;;;;;21015029;28;20039;-59
2023/08/31 04:41:09;;;;;;;1.83;0.30;;;8.60;99.90;;;;;;21021256;28;20028;-53
2023/08/31 04:51:46;;;;;;;0.63;0.40;;;8.70;99.90;;;;;;21015621;28;20058;-53
2023/08/31 05:01:47;;;;;;;0.45;0.20;;;9.00;99.90;;;;;;21024429;28;20044;-53
2023/08/31 05:11:49;;;;;;;1.85;0.20;;;9.10;99.90;;;;;;21030508;28;20477;-53
2023/08/31 05:21:51;;;;;;;0.95;0.20;;;9.30;99.90;;;;;;21013001;28;20377;-53
2023/08/31 05:31:53;;;;;;;0.30;0.20;;;9.50;99.90;;;;;;21000245;28;20086;-49
2023/08/31 05:41:55;;;;;;;0.10;0.10;;;9.90;99.90;;;;;;20998678;28;20036;-58
2023/08/31 05:51:56;;;;;;;0.20;0.20;;;10.20;99.90;;;;;;20992350;28;20040;-60
2023/08/31 06:01:58;;;;;;;0.25;0.20;;;10.50;99.90;;;;;;21003091;28;20032;-61
2023/08/31 06:12:00;;;;;;;0.20;0.20;;;10.70;99.90;;;;;;21001601;28;20032;-61
2023/08/31 06:22:02;;;;;;;0.17;0.10;;;10.90;99.90;;;;;;21013200;28;20031;-54
2023/08/31 06:32:04;;;;;;;0.50;0.20;;;11.20;99.90;;;;;;21017333;28;20039;-62
2023/08/31 06:42:05;;;;;;;0.55;0.10;;;11.80;99.90;;;;;;21015663;28;20541;-62
2023/08/31 06:52:07;;;;;;;0.20;0.03;;;13.00;99.90;;;;;;20998055;28;20035;-63
2023/08/31 07:02:09;;;;;;;0.40;0.10;;;14.10;99.90;;;;;;20998575;28;20044;-63
2023/08/31 07:12:11;;;;;;;1.10;0.50;;;15.10;99.90;;;;;;21012682;28;20032;-64
2023/08/31 07:22:13;;;;;;;1.50;0.40;;;15.90;99.90;;;;;;21037289;28;20032;-64
2023/08/31 07:32:17;;;;;;;0.40;0.30;;;16.40;99.90;;;;;;21042020;28;20478;-63
2023/08/31 07:42:19;;;;;;;0.68;0.30;;;17.20;99.90;;;;;;21032627;28;20566;-63
2023/08/31 07:52:20;;;;;;;0.70;0.50;;;18.00;99.90;;;;;;21036957;28;20465;-56
2023/08/31 08:02:22;;;;;;;1.02;0.90;;;18.50;99.90;;;;;;21018419;28;20082;-63
2023/08/31 08:12:25;;;;;;;2.35;1.20;;;18.60;99.90;;;;;;21041012;28;20036;-62
2023/08/31 08:22:26;;;;;;;2.55;0.75;;;18.70;99.90;;;;;;21024869;28;20036;-62
2023/08/31 08:32:28;;;;;;;1.13;1.00;;;19.20;99.90;;;;;;21023723;28;20397;-61
2023/08/31 08:42:35;;;;;;;1.60;0.50;;;19.60;99.90;;;;;;21002200;28;20032;-61
2023/08/31 08:52:39;;;;;;;0.73;0.50;;;20.00;99.90;;;;;;21013969;28;20108;-62
2023/08/31 09:02:41;;;;;;;2.00;1.05;;;19.20;99.90;;;;;;21013273;28;20040;-54
2023/08/31 09:12:42;;;;;;;1.77;1.33;;;18.40;99.90;;;;;;21025760;28;20036;-61
2023/08/31 09:22:44;;;;;;;1.38;1.27;;;18.60;99.90;;;;;;21014602;28;20062;-61
2023/08/31 09:32:52;;;;;;;1.52;1.30;;;19.20;99.90;;;;;;21009332;28;20040;-60
2023/08/31 09:42:54;;;;;;;3.50;1.30;;;20.60;99.90;;;;;;21005431;28;20037;-61
2023/08/31 09:52:58;;;;;;;2.20;2.00;;;21.70;99.90;;;;;;21016133;28;20033;-60
2023/08/31 10:03:04;;;;;;;2.60;1.42;;;20.70;99.90;;;;;;21010659;28;20045;-59
2023/08/31 10:13:06;;;;;;;1.55;1.42;;;21.50;99.90;;;;;;21011709;28;20036;-62
2023/08/31 10:23:08;;;;;;;2.03;1.70;;;21.20;99.90;;;;;;21024657;28;20039;-61
2023/08/31 10:33:09;;;;;;;4.32;2.78;;;21.20;99.90;;;;;;21023793;28;20032;-60
2023/08/31 10:43:15;;;;;;;3.33;3.03;;;20.40;99.90;;;;;;21014483;28;20028;-61
2023/08/31 10:53:17;;;;;;;3.22;2.97;;;19.90;99.90;;;;;;21012824;28;20104;-62
2023/08/31 11:03:19;;;;;;;6.55;4.57;;;18.50;99.90;;;;;;21018398;28;20032;-62
2023/08/31 11:13:23;;;;;;;4.15;3.78;;;18.00;99.90;;;;;;21001583;28;20029;-61
2023/08/31 11:23:26;;;;;;;4.07;3.55;;;17.60;99.90;;;;;;21027437;28;20036;-59
2023/08/31 11:33:33;;;;;;;3.47;3.00;;;18.80;99.90;;;;;;21011273;28;20036;-60
2023/08/31 11:43:35;;;;;;;5.00;3.15;;;21.00;99.90;;;;;;21004188;28;20400;-59
2023/08/31 11:53:37;;;;;;;3.13;2.90;;;22.70;99.90;;;;;;21009541;28;20491;-52
2023/08/31 12:03:47;;;;;;;2.90;2.53;;;22.70;99.90;;;;;;21023771;28;20105;-56
2023/08/31 12:13:50;;;;;;;4.57;3.20;;;22.50;99.90;;;;;;21023918;28;20028;-56
2023/08/31 12:23:52;;;;;;;4.65;3.05;;;22.90;99.90;;;;;;21041317;28;20036;-56
2023/08/31 12:33:54;;;;;;;2.88;2.67;;;23.10;99.90;;;;;;21020814;28;20032;-55
2023/08/31 12:43:56;;;;;;;3.45;2.95;;;23.70;99.90;;;;;;21019605;28;20362;-60
2023/08/31 12:53:58;;;;;;;3.50;2.88;;;23.80;98.90;;;;;;21029979;28;20897;-61
2023/08/31 13:04:00;;;;;;;6.70;5.25;;;23.30;99.90;;;;;;20999670;28;20155;-62
2023/08/31 13:14:01;;;;;;;6.78;6.05;;;22.10;99.90;;;;;;21015489;28;20109;-62
2023/08/31 13:24:05;;;;;;;8.48;6.10;;;21.10;99.90;;;;;;20997830;28;20044;-62
2023/08/31 13:34:07;;;;;;;6.10;5.13;;;20.50;99.90;;;;;;21002918;28;20101;-55
2023/08/31 13:44:09;;;;;;;7.85;4.40;;;20.40;99.90;;;;;;21013534;28;20036;-62
2023/08/31 13:54:11;;;;;;;5.80;4.78;;;19.60;99.90;;;;;;21000472;28;20465;-62
2023/08/31 14:04:13;;;;;;;5.40;4.25;;;18.70;99.90;;;;;;21006147;28;20037;-62
2023/08/31 14:14:15;;;;;;;5.07;4.25;;;18.80;99.90;;;;;;21021042;28;20028;-60
2023/08/31 14:24:17;;;;;;;7.57;5.22;;;18.50;99.90;;;;;;21014675;28;20041;-63
2023/08/31 14:34:18;;;;;;;9.52;4.82;;;18.60;99.90;;;;;;21004247;28;20062;-62
2023/08/31 14:44:20;;;;;;;5.45;4.18;;;18.90;99.90;;;;;;21026003;28;20085;-62
2023/08/31 14:54:23;;;;;;;7.60;5.65;;;19.20;99.90;;;;;;21012022;28;20040;-64
2023/08/31 15:04:25;;;;;;;6.97;4.53;;;18.20;99.90;;;;;;21008838;28;20379;-56
2023/08/31 15:14:26;;;;;;;7.10;5.25;;;18.00;99.90;;;;;;20998336;28;20085;-63
2023/08/31 15:24:28;;;;;;;8.45;5.05;;;18.00;99.90;;;;;;20994628;28;20025;-62
2023/08/31 15:34:30;;;;;;;10.73;7.20;;;17.40;99.90;;;;;;20994419;28;20035;-60
2023/08/31 15:44:38;;;;;;;7.63;6.32;;;16.60;99.90;;;;;;21021297;28;20047;-61
2023/08/31 15:54:40;;;;;;;8.85;6.20;;;16.20;99.90;;;;;;20994134;28;20029;-61
2023/08/31 16:04:43;;;;;;;7.90;6.43;;;16.20;99.90;;;;;;21014825;28;20066;-59
2023/08/31 16:14:51;;;;;;;9.30;6.63;;;15.90;99.90;;;;;;21015601;28;20035;-62
2023/08/31 16:24:53;;;;;;;8.07;6.30;;;15.80;99.90;;;;;;21000264;28;20038;-63
2023/08/31 16:34:54;;;;;;;6.80;5.40;;;15.90;99.90;;;;;;21013718;28;20105;-61
2023/08/31 16:44:56;;;;;;;6.40;5.75;;;16.00;99.90;;;;;;21012589;28;20032;-52
2023/08/31 16:54:59;;;;;;;10.15;6.05;;;15.90;99.90;;;;;;21032627;28;20032;-61
2023/08/31 17:05:01;;;;;;;7.20;5.72;;;15.70;99.90;;;;;;21024174;28;20106;-61
2023/08/31 17:15:03;;;;;;;6.18;5.10;;;15.30;99.90;;;;;;21034036;28;20175;-61
2023/08/31 17:25:05;;;;;;;6.93;6.22;;;14.80;99.90;;;;;;21011935;28;20025;-61
2023/08/31 17:35:09;;;;;;;8.30;6.38;;;14.40;99.90;;;;;;20981743;28;20043;-64
2023/08/31 17:45:11;;;;;;;7.38;5.70;;;14.10;99.90;;;;;;21020910;28;20404;-57
2023/08/31 17:55:13;;;;;;;6.72;5.68;;;13.90;99.90;;;;;;21038879;28;20040;-60
2023/08/31 18:05:18;;;;;;;5.63;5.03;;;13.70;99.90;;;;;;21037875;28;20062;-61
2023/08/31 18:15:25;;;;;;;8.30;7.40;;;13.70;99.90;;;;;;21022526;28;20059;-60
2023/08/31 18:25:31;;;;;;;13.38;9.70;;;13.60;99.90;;;;;;21021498;28;20032;-58
2023/08/31 18:35:38;;;;;;;8.65;7.75;;;13.60;99.90;;;;;;21027828;28;20043;-50
2023/08/31 18:45:46;;;;;;;13.90;11.02;;;13.40;99.90;;;;;;20980460;28;20044;-51
2023/08/31 18:55:50;;;;;;;11.05;9.65;;;12.90;99.90;;;;;;20993344;28;20043;-50
2023/08/31 19:05:57;;;;;;;11.43;8.32;;;12.60;99.90;;;;;;20943985;28;20050;-59
2023/08/31 19:16:02;;;;;;;8.63;6.07;;;12.40;99.90;;;;;;20980597;28;20435;-61
2023/08/31 19:26:08;;;;;;;9.32;7.18;;;12.40;99.90;;;;;;20988197;28;20086;-57
2023/08/31 19:36:12;;;;;;;10.95;8.30;;;12.40;99.90;;;;;;21022828;28;20051;-59
2023/08/31 19:46:24;;;;;;;12.20;9.35;;;12.60;99.90;;;;;;21001462;28;20048;-60
2023/08/31 19:56:33;;;;;;;12.50;11.20;;;12.70;99.90;;;;;;21023810;28;20086;-60
2023/08/31 20:06:39;;;;;;;17.48;12.90;;;12.50;99.90;;;;;;21024570;28;20052;-52
2023/08/31 20:16:44;;;;;;;16.15;14.40;;;12.40;99.90;;;;;;21040514;28;20873;-52
2023/08/31 20:26:51;;;;;;;19.70;15.65;;;12.10;99.90;;;;;;21033050;28;20346;-60
2023/08/31 20:36:55;;;;;;;20.40;16.52;;;11.90;99.90;;;;;;21045929;28;20381;-52
2023/08/31 20:46:58;;;;;;;25.45;19.25;;;11.80;99.90;;;;;;21027932;28;20048;-54
2023/08/31 20:57:01;;;;;;;21.83;16.13;;;11.90;99.90;;;;;;21040617;28;20044;-59
2023/08/31 21:07:12;;;;;;;23.17;18.10;;;11.70;99.90;;;;;;20984036;28;20048;-50
2023/08/31 21:17:16;;;;;;;23.15;18.75;;;11.30;99.90;;;;;;21008342;28;20066;-50
2023/08/31 21:27:20;;;;;;;28.10;22.90;;;11.30;99.90;;;;;;21009152;28;20040;-60
2023/08/31 21:37:24;;;;;;;35.55;28.10;;;11.40;99.90;;;;;;20993961;28;20032;-51
2023/08/31 21:47:28;;;;;;;34.00;27.40;;;11.40;99.90;;;;;;21058119;28;20032;-60
2023/08/31 21:57:31;;;;;;;31.67;24.83;;;11.30;99.90;;;;;;21057227;28;20384;-60
2023/08/31 22:07:38;;;;;;;29.75;23.23;;;11.40;99.90;;;;;;21038732;28;20054;-60
2023/08/31 22:17:46;;;;;;;16.80;14.00;;;11.30;99.90;;;;;;21055047;28;20040;-59
2023/08/31 22:27:54;;;;;;;16.90;11.35;;;11.10;99.90;;;;;;20796229;28;20080;-59
2023/08/31 22:37:57;;;;;;;20.73;15.02;;;11.20;99.90;;;;;;20795849;28;20045;-59
2023/08/31 22:48:00;;;;;;;22.35;18.75;;;11.30;99.90;;;;;;20794433;28;20107;-60
2023/08/31 22:58:05;;;;;;;19.58;16.10;;;11.90;99.90;;;;;;20835024;28;20113;-61
2023/08/31 23:08:10;;;;;;;20.38;14.52;;;12.00;99.90;;;;;;21052460;28;20056;-60
2023/08/31 23:18:12;;;;;;;21.90;15.57;;;12.00;99.90;;;;;;21034294;28;20054;-59
2023/08/31 23:28:14;;;;;;;22.92;17.50;;;11.60;99.90;;;;;;21051608;28;20032;-60
2023/08/31 23:38:16;;;;;;;21.42;17.30;;;11.30;99.90;;;;;;21051808;28;20051;-60
2023/08/31 23:48:18;;;;;;;27.20;20.58;;;11.20;99.90;;;;;;21051294;28;20032;-59
2023/08/31 23:58:20;;;;;;;26.95;21.35;;;11.00;99.90;;;;;;21057200;28;20476;-60
